Time;durP1;ratioP1;P1;durP2;ratioP2;P2;SDS_P1;SDS_P2;PMS_P1;PMS_P2;Temp;Humidity;BMP_temperature;BMP_pressure;BME280_temperature;BME280_humidity;BME280_pressure;Samples;Min_cycle;Max_cycle;Signal;HPM_P1;HPM_P2
2023/05/12 00:01:44;;;;;;;5.00;2.72;;;;;;;;;;4205717;28;20094;-59
2023/05/12 00:04:05;;;;;;;2.42;2.22;;;;;;;;;;4204830;28;20051;-58
2023/05/12 00:06:25;;;;;;;2.58;2.58;;;;;;;;;;4204759;28;20252;-59
2023/05/12 00:08:45;;;;;;;3.20;2.97;;;;;;;;;;4205019;28;20073;-59
2023/05/12 00:11:05;;;;;;;2.67;2.47;;;;;;;;;;4205013;28;20059;-59
2023/05/12 00:13:26;;;;;;;2.85;2.70;;;;;;;;;;4204223;28;20048;-59
2023/05/12 00:15:46;;;;;;;8.10;3.03;;;;;;;;;;4205366;28;20052;-58
2023/05/12 00:18:06;;;;;;;2.88;2.67;;;;;;;;;;4205700;28;20232;-58
2023/05/12 00:20:27;;;;;;;2.58;2.47;;;;;;;;;;4204651;28;20078;-59
2023/05/12 00:22:47;;;;;;;2.90;2.67;;;;;;;;;;4205900;28;20108;-58
2023/05/12 00:25:07;;;;;;;3.53;3.00;;;;;;;;;;4205692;28;20046;-58
2023/05/12 00:27:30;;;;;;;2.53;2.40;;;;;;;;;;4205627;28;20178;-58
2023/05/12 00:29:51;;;;;;;2.75;2.65;;;;;;;;;;4205355;28;20086;-58
2023/05/12 00:32:11;;;;;;;2.45;2.45;;;;;;;;;;4204083;28;20104;-58
2023/05/12 00:34:31;;;;;;;2.47;2.47;;;;;;;;;;4204890;28;20236;-58
2023/05/12 00:36:52;;;;;;;4.20;3.42;;;;;;;;;;4205567;28;20086;-58
2023/05/12 00:39:12;;;;;;;4.63;2.67;;;;;;;;;;4204254;28;20236;-59
2023/05/12 00:41:32;;;;;;;3.63;3.38;;;;;;;;;;4205541;28;20082;-58
2023/05/12 00:43:53;;;;;;;2.42;2.40;;;;;;;;;;4205666;28;20063;-58
2023/05/12 00:46:13;;;;;;;88.43;6.28;;;;;;;;;;4205458;28;20059;-58
2023/05/12 00:48:33;;;;;;;10.85;3.60;;;;;;;;;;4205379;28;20051;-59
2023/05/12 00:50:54;;;;;;;2.85;2.70;;;;;;;;;;4205427;28;20118;-59
2023/05/12 00:53:15;;;;;;;11.18;3.53;;;;;;;;;;4205242;28;20082;-59
2023/05/12 00:55:36;;;;;;;3.58;3.30;;;;;;;;;;4205333;28;20054;-58
2023/05/12 00:57:56;;;;;;;3.03;2.92;;;;;;;;;;4205184;28;20391;-58
2023/05/12 01:00:17;;;;;;;2.92;2.80;;;;;;;;;;4205362;28;20044;-58
2023/05/12 01:02:38;;;;;;;4.22;3.03;;;;;;;;;;4205430;28;20067;-58
2023/05/12 01:04:59;;;;;;;2.67;2.67;;;;;;;;;;4201818;22;20055;-60
2023/05/12 01:07:21;;;;;;;3.13;2.78;;;;;;;;;;4194696;28;20063;-60
2023/05/12 01:09:41;;;;;;;2.92;2.72;;;;;;;;;;4197914;28;20086;-60
2023/05/12 01:12:01;;;;;;;2.50;2.40;;;;;;;;;;4199518;28;20086;-60
2023/05/12 01:14:21;;;;;;;2.45;2.35;;;;;;;;;;4197021;28;20419;-60
2023/05/12 01:16:51;;;;;;;3.47;2.08;;;;;;;;;;4199805;28;20059;-60
2023/05/12 01:19:18;;;;;;;2.33;2.22;;;;;;;;;;4197227;28;20048;-60
2023/05/12 01:21:39;;;;;;;1.80;1.80;;;;;;;;;;4196749;28;20382;-60
2023/05/12 01:24:05;;;;;;;2.38;2.20;;;;;;;;;;4201463;28;20052;-60
2023/05/12 01:26:26;;;;;;;2.45;2.42;;;;;;;;;;4201212;28;20056;-60
2023/05/12 01:28:47;;;;;;;2.28;2.08;;;;;;;;;;4202654;28;20091;-61
2023/05/12 01:31:07;;;;;;;5.07;2.47;;;;;;;;;;4198406;28;20051;-60
2023/05/12 01:33:28;;;;;;;2.90;2.70;;;;;;;;;;4199879;28;20048;-60
2023/05/12 01:35:49;;;;;;;4.85;3.40;;;;;;;;;;4201473;28;20079;-60
2023/05/12 01:38:09;;;;;;;16.50;3.45;;;;;;;;;;4198296;28;20079;-60
2023/05/12 01:40:29;;;;;;;9.50;3.25;;;;;;;;;;4198621;28;20086;-60
2023/05/12 01:42:50;;;;;;;12.93;3.08;;;;;;;;;;4190606;28;20055;-60
2023/05/12 01:45:10;;;;;;;3.53;3.33;;;;;;;;;;4190404;28;20052;-60
2023/05/12 01:47:30;;;;;;;3.10;2.83;;;;;;;;;;4191139;28;20076;-60
2023/05/12 01:49:53;;;;;;;4.90;3.08;;;;;;;;;;4193359;28;20375;-60
2023/05/12 01:52:13;;;;;;;3.05;2.85;;;;;;;;;;4190932;28;20059;-60
2023/05/12 01:54:33;;;;;;;3.17;3.13;;;;;;;;;;4190227;28;20048;-60
2023/05/12 01:56:53;;;;;;;3.00;2.90;;;;;;;;;;4190443;28;20293;-60
2023/05/12 01:59:13;;;;;;;2.67;2.63;;;;;;;;;;4191288;28;20095;-60
2023/05/12 02:01:33;;;;;;;3.38;3.38;;;;;;;;;;4195772;28;20048;-61
2023/05/12 02:03:54;;;;;;;48.75;5.47;;;;;;;;;;4189687;28;20083;-60
2023/05/12 02:06:15;;;;;;;2.88;2.78;;;;;;;;;;4192655;28;20251;-60
2023/05/12 02:08:35;;;;;;;2.33;2.28;;;;;;;;;;4193018;28;20047;-60
2023/05/12 02:11:06;;;;;;;2.72;2.53;;;;;;;;;;4190438;28;20048;-60
2023/05/12 02:13:27;;;;;;;3.90;3.00;;;;;;;;;;4198443;28;20060;-60
2023/05/12 02:15:48;;;;;;;2.60;2.60;;;;;;;;;;4191900;28;20052;-60
2023/05/12 02:18:08;;;;;;;9.40;2.90;;;;;;;;;;4190499;28;20043;-60
2023/05/12 02:20:28;;;;;;;3.75;3.55;;;;;;;;;;4199099;28;20294;-60
2023/05/12 02:22:48;;;;;;;3.47;3.17;;;;;;;;;;4194161;28;20202;-60
2023/05/12 02:25:09;;;;;;;4.30;3.30;;;;;;;;;;4191529;28;20743;-60
2023/05/12 02:27:31;;;;;;;3.03;2.83;;;;;;;;;;4195367;28;20271;-60
2023/05/12 02:29:52;;;;;;;3.00;3.00;;;;;;;;;;4194195;28;20091;-60
2023/05/12 02:32:12;;;;;;;3.90;3.00;;;;;;;;;;4191673;28;20048;-60
2023/05/12 02:34:33;;;;;;;2.63;2.42;;;;;;;;;;4192555;28;20082;-60
2023/05/12 02:36:53;;;;;;;8.68;2.47;;;;;;;;;;4194306;28;20044;-60
2023/05/12 02:39:13;;;;;;;2.78;2.38;;;;;;;;;;4189838;28;20110;-60
2023/05/12 02:41:33;;;;;;;2.90;2.80;;;;;;;;;;4191131;28;20386;-60
2023/05/12 02:43:53;;;;;;;3.20;2.92;;;;;;;;;;4193290;28;20075;-60
2023/05/12 02:46:13;;;;;;;3.92;3.50;;;;;;;;;;4190082;28;20067;-60
2023/05/12 02:48:34;;;;;;;2.85;2.75;;;;;;;;;;4197486;28;20056;-60
2023/05/12 02:50:54;;;;;;;3.03;2.90;;;;;;;;;;4190190;28;20048;-60
2023/05/12 02:53:14;;;;;;;2.38;2.28;;;;;;;;;;4189905;28;20086;-60
2023/05/12 02:55:34;;;;;;;2.63;2.63;;;;;;;;;;4195806;28;20117;-60
2023/05/12 02:57:54;;;;;;;3.20;3.10;;;;;;;;;;4201852;28;20062;-60
2023/05/12 03:00:15;;;;;;;3.55;3.38;;;;;;;;;;4190267;28;20056;-60
2023/05/12 03:02:36;;;;;;;4.20;3.22;;;;;;;;;;4194277;28;20086;-60
2023/05/12 03:04:56;;;;;;;3.15;3.05;;;;;;;;;;4199044;28;20238;-60
2023/05/12 03:07:16;;;;;;;2.42;2.42;;;;;;;;;;4200232;28;20308;-61
2023/05/12 03:09:37;;;;;;;3.33;2.97;;;;;;;;;;4191317;28;20714;-60
2023/05/12 03:11:57;;;;;;;3.30;3.10;;;;;;;;;;4195434;28;20070;-60
2023/05/12 03:14:17;;;;;;;2.67;2.53;;;;;;;;;;4189308;28;20233;-60
2023/05/12 03:16:37;;;;;;;3.85;2.90;;;;;;;;;;4190732;28;20047;-61
2023/05/12 03:18:57;;;;;;;3.13;2.70;;;;;;;;;;4193503;28;20366;-60
2023/05/12 03:21:18;;;;;;;4.57;2.42;;;;;;;;;;4189387;28;20083;-60
2023/05/12 03:23:38;;;;;;;2.42;2.33;;;;;;;;;;4191074;28;20090;-60
2023/05/12 03:25:58;;;;;;;4.95;2.70;;;;;;;;;;4190345;28;20076;-60
2023/05/12 03:28:18;;;;;;;2.53;2.53;;;;;;;;;;4189272;28;20039;-60
2023/05/12 03:30:38;;;;;;;3.05;2.70;;;;;;;;;;4190320;28;20362;-60
2023/05/12 03:32:58;;;;;;;3.53;3.33;;;;;;;;;;4195086;28;20090;-61
2023/05/12 03:35:18;;;;;;;2.95;2.85;;;;;;;;;;4189405;28;20055;-61
2023/05/12 03:37:38;;;;;;;3.30;3.00;;;;;;;;;;4189485;28;20056;-60
2023/05/12 03:39:58;;;;;;;2.35;2.15;;;;;;;;;;4193609;28;20091;-60
2023/05/12 03:42:19;;;;;;;2.60;2.55;;;;;;;;;;4189654;28;20052;-60
2023/05/12 03:44:39;;;;;;;2.58;2.38;;;;;;;;;;4187978;28;20051;-60
2023/05/12 03:46:59;;;;;;;2.22;2.13;;;;;;;;;;4192487;28;20380;-60
2023/05/12 03:49:20;;;;;;;4.10;2.80;;;;;;;;;;4196931;28;20044;-60
2023/05/12 03:51:40;;;;;;;4.55;2.58;;;;;;;;;;4188529;28;20063;-60
2023/05/12 03:54:00;;;;;;;2.97;2.88;;;;;;;;;;4191153;28;20075;-60
2023/05/12 03:56:20;;;;;;;3.75;3.65;;;;;;;;;;4188784;28;20112;-60
2023/05/12 03:58:41;;;;;;;2.33;2.33;;;;;;;;;;4188135;28;20056;-60
2023/05/12 04:01:01;;;;;;;4.10;2.97;;;;;;;;;;4189078;28;20362;-60
2023/05/12 04:03:22;;;;;;;2.72;2.63;;;;;;;;;;4192266;28;20047;-61
2023/05/12 04:05:42;;;;;;;4.40;2.70;;;;;;;;;;4188818;28;20442;-61
2023/05/12 04:08:02;;;;;;;2.72;2.70;;;;;;;;;;4187936;28;20106;-61
2023/05/12 04:10:22;;;;;;;3.38;3.17;;;;;;;;;;4189219;28;20052;-61
2023/05/12 04:12:42;;;;;;;3.08;2.88;;;;;;;;;;4192933;28;20111;-61
2023/05/12 04:15:03;;;;;;;2.67;2.42;;;;;;;;;;4188397;28;20059;-61
2023/05/12 04:17:24;;;;;;;2.90;2.70;;;;;;;;;;4191008;28;20103;-61
2023/05/12 04:19:44;;;;;;;4.05;3.10;;;;;;;;;;4189754;28;20108;-61
2023/05/12 04:22:04;;;;;;;2.88;2.80;;;;;;;;;;4192506;28;20060;-61
2023/05/12 04:24:25;;;;;;;3.28;3.13;;;;;;;;;;4189778;28;20056;-61
2023/05/12 04:26:46;;;;;;;2.70;2.60;;;;;;;;;;4189323;28;20086;-61
2023/05/12 04:29:06;;;;;;;2.70;2.50;;;;;;;;;;4189821;28;20271;-61
2023/05/12 04:31:26;;;;;;;4.63;3.50;;;;;;;;;;4189599;28;20048;-61
2023/05/12 04:33:46;;;;;;;2.70;2.45;;;;;;;;;;4188480;28;20131;-61
2023/05/12 04:36:08;;;;;;;3.00;2.90;;;;;;;;;;4189287;28;20090;-61
2023/05/12 04:38:28;;;;;;;2.80;2.65;;;;;;;;;;4188813;28;20087;-61
2023/05/12 04:40:48;;;;;;;2.88;2.65;;;;;;;;;;4188622;28;20048;-61
2023/05/12 04:43:08;;;;;;;3.13;2.92;;;;;;;;;;4187364;28;20244;-63
2023/05/12 04:45:50;;;;;;;2.80;2.70;;;;;;;;;;4191957;28;20095;-63
2023/05/12 04:48:10;;;;;;;2.70;2.60;;;;;;;;;;4190625;28;20066;-63
2023/05/12 04:50:30;;;;;;;3.17;2.97;;;;;;;;;;4194733;28;20086;-64
2023/05/12 04:52:51;;;;;;;2.92;2.72;;;;;;;;;;4193544;28;20108;-61
2023/05/12 04:55:11;;;;;;;2.95;2.85;;;;;;;;;;4188771;28;20048;-61
2023/05/12 04:57:31;;;;;;;3.63;3.50;;;;;;;;;;4190445;28;20271;-61
2023/05/12 04:59:52;;;;;;;2.38;2.33;;;;;;;;;;4194575;28;20075;-61
2023/05/12 05:02:12;;;;;;;2.55;2.40;;;;;;;;;;4188568;28;20056;-61
2023/05/12 05:04:32;;;;;;;2.92;2.70;;;;;;;;;;4192367;28;21263;-61
2023/05/12 05:06:54;;;;;;;2.50;2.40;;;;;;;;;;4190839;28;20100;-61
2023/05/12 05:09:14;;;;;;;2.97;2.63;;;;;;;;;;4191724;28;20064;-61
2023/05/12 05:11:34;;;;;;;2.67;2.47;;;;;;;;;;4189919;28;20086;-61
2023/05/12 05:13:55;;;;;;;2.80;2.60;;;;;;;;;;4191447;28;20086;-61
2023/05/12 05:16:15;;;;;;;4.88;2.40;;;;;;;;;;4188233;28;20098;-60
2023/05/12 05:18:36;;;;;;;3.72;2.10;;;;;;;;;;4189845;28;20056;-59
2023/05/12 05:20:56;;;;;;;6.18;2.97;;;;;;;;;;4190883;28;20276;-58
2023/05/12 05:23:19;;;;;;;2.85;2.65;;;;;;;;;;4188406;28;20083;-59
2023/05/12 05:25:39;;;;;;;2.75;2.05;;;;;;;;;;4188028;28;20152;-59
2023/05/12 05:27:59;;;;;;;3.67;2.80;;;;;;;;;;4188876;28;20277;-59
2023/05/12 05:30:19;;;;;;;2.45;2.17;;;;;;;;;;4188080;28;20090;-59
2023/05/12 05:32:40;;;;;;;3.00;1.92;;;;;;;;;;4188311;28;20419;-59
2023/05/12 05:35:00;;;;;;;3.33;1.98;;;;;;;;;;4187679;28;20117;-59
2023/05/12 05:37:20;;;;;;;3.70;2.13;;;;;;;;;;4188785;28;20314;-59
2023/05/12 05:39:40;;;;;;;3.05;2.17;;;;;;;;;;4190867;28;20048;-58
2023/05/12 05:42:00;;;;;;;3.05;2.20;;;;;;;;;;4188513;28;20116;-59
2023/05/12 05:44:21;;;;;;;2.33;2.10;;;;;;;;;;4187134;28;20240;-59
2023/05/12 05:46:41;;;;;;;2.95;2.15;;;;;;;;;;4187020;28;20043;-59
2023/05/12 05:49:01;;;;;;;3.30;1.95;;;;;;;;;;4186866;28;20048;-59
2023/05/12 05:51:22;;;;;;;7.10;3.00;;;;;;;;;;4187598;28;20109;-59
2023/05/12 05:53:42;;;;;;;4.13;2.83;;;;;;;;;;4190263;28;20056;-59
2023/05/12 05:56:02;;;;;;;2.35;2.25;;;;;;;;;;4187839;28;20048;-59
2023/05/12 05:58:22;;;;;;;4.03;2.80;;;;;;;;;;4191871;28;20051;-58
2023/05/12 06:00:42;;;;;;;3.40;3.20;;;;;;;;;;4187861;28;20098;-59
2023/05/12 06:03:02;;;;;;;3.50;2.88;;;;;;;;;;4188043;28;20060;-58
2023/05/12 06:05:23;;;;;;;4.82;1.60;;;;;;;;;;4187096;28;20248;-59
2023/05/12 06:07:43;;;;;;;3.33;2.78;;;;;;;;;;4187938;28;20060;-59
2023/05/12 06:10:03;;;;;;;5.05;2.70;;;;;;;;;;4187691;28;20077;-59
2023/05/12 06:12:24;;;;;;;6.55;2.65;;;;;;;;;;4190272;28;20059;-59
2023/05/12 06:14:44;;;;;;;2.35;2.25;;;;;;;;;;4197557;28;20040;-59
2023/05/12 06:17:04;;;;;;;5.22;2.88;;;;;;;;;;4189881;28;20052;-59
2023/05/12 06:19:24;;;;;;;2.97;2.78;;;;;;;;;;4188563;28;20095;-59
2023/05/12 06:21:44;;;;;;;3.25;2.00;;;;;;;;;;4194388;28;20114;-59
2023/05/12 06:24:05;;;;;;;4.85;2.70;;;;;;;;;;4190119;28;20051;-58
2023/05/12 06:26:25;;;;;;;2.30;2.10;;;;;;;;;;4189534;28;20056;-59
2023/05/12 06:28:45;;;;;;;3.00;2.42;;;;;;;;;;4191062;28;20052;-59
2023/05/12 06:31:08;;;;;;;3.22;2.30;;;;;;;;;;4194626;28;20090;-58
2023/05/12 06:33:29;;;;;;;3.03;2.28;;;;;;;;;;4191300;28;20059;-58
2023/05/12 06:35:49;;;;;;;2.83;1.23;;;;;;;;;;4190449;28;20067;-59
2023/05/12 06:38:09;;;;;;;9.77;2.20;;;;;;;;;;4189137;28;20040;-59
2023/05/12 06:40:29;;;;;;;2.45;1.98;;;;;;;;;;4192169;28;20091;-59
2023/05/12 06:42:49;;;;;;;3.55;2.85;;;;;;;;;;4195566;28;20056;-59
2023/05/12 06:45:11;;;;;;;3.58;2.20;;;;;;;;;;4190575;28;20043;-59
2023/05/12 06:47:31;;;;;;;3.53;3.22;;;;;;;;;;4190378;28;20371;-58
2023/05/12 06:49:51;;;;;;;4.13;1.80;;;;;;;;;;4194120;28;20236;-59
2023/05/12 06:52:11;;;;;;;2.67;1.67;;;;;;;;;;4189482;28;20056;-58
2023/05/12 06:54:31;;;;;;;6.53;2.40;;;;;;;;;;4191031;28;20090;-58
2023/05/12 06:56:52;;;;;;;4.72;3.65;;;;;;;;;;4189458;28;20056;-58
2023/05/12 06:59:12;;;;;;;2.72;2.53;;;;;;;;;;4189286;28;20378;-59
2023/05/12 07:01:33;;;;;;;4.80;2.00;;;;;;;;;;4190157;28;20052;-59
2023/05/12 07:03:53;;;;;;;7.43;3.03;;;;;;;;;;4191352;28;20048;-58
2023/05/12 07:06:14;;;;;;;3.83;2.38;;;;;;;;;;4189667;28;20333;-58
2023/05/12 07:08:34;;;;;;;3.17;2.15;;;;;;;;;;4188462;28;20051;-58
2023/05/12 07:10:54;;;;;;;4.47;2.30;;;;;;;;;;4189896;28;20060;-58
2023/05/12 07:13:14;;;;;;;7.05;3.38;;;;;;;;;;4192483;28;20087;-58
2023/05/12 07:15:35;;;;;;;2.60;2.10;;;;;;;;;;4189148;28;20060;-58
2023/05/12 07:17:55;;;;;;;5.13;1.70;;;;;;;;;;4189886;28;20236;-58
2023/05/12 07:20:15;;;;;;;10.55;2.50;;;;;;;;;;4189574;28;20228;-58
2023/05/12 07:22:36;;;;;;;8.20;2.97;;;;;;;;;;4189436;28;20064;-58
2023/05/12 07:24:58;;;;;;;3.97;2.40;;;;;;;;;;4187386;28;20079;-58
2023/05/12 07:27:18;;;;;;;5.10;2.15;;;;;;;;;;4192645;28;20382;-58
2023/05/12 07:29:39;;;;;;;6.40;2.35;;;;;;;;;;4188529;28;20068;-58
2023/05/12 07:31:59;;;;;;;7.13;1.63;;;;;;;;;;4189284;28;20043;-57
2023/05/12 07:34:20;;;;;;;7.13;1.75;;;;;;;;;;4189842;28;20430;-58
2023/05/12 07:36:40;;;;;;;5.68;1.65;;;;;;;;;;4188777;28;20039;-58
2023/05/12 07:39:00;;;;;;;5.75;2.70;;;;;;;;;;4189468;28;20408;-58
2023/05/12 07:41:20;;;;;;;10.43;3.15;;;;;;;;;;4189364;28;20087;-58
2023/05/12 07:43:40;;;;;;;3.97;2.58;;;;;;;;;;4188587;28;20055;-59
2023/05/12 07:46:01;;;;;;;1.85;1.60;;;;;;;;;;4189429;28;20048;-58
2023/05/12 07:48:21;;;;;;;9.68;2.00;;;;;;;;;;4189396;28;20079;-58
2023/05/12 07:50:41;;;;;;;3.53;1.70;;;;;;;;;;4193911;28;20125;-58
2023/05/12 07:53:02;;;;;;;2.15;1.90;;;;;;;;;;4198697;28;20055;-58
2023/05/12 07:55:22;;;;;;;5.63;2.30;;;;;;;;;;4199075;28;20371;-58
2023/05/12 07:57:42;;;;;;;12.68;2.65;;;;;;;;;;4189126;28;20112;-58
2023/05/12 08:00:03;;;;;;;5.07;1.63;;;;;;;;;;4196465;28;20047;-58
2023/05/12 08:02:23;;;;;;;3.65;2.13;;;;;;;;;;4200785;28;20274;-57
2023/05/12 08:04:43;;;;;;;9.95;3.80;;;;;;;;;;4192683;28;20059;-58
2023/05/12 08:07:04;;;;;;;5.30;1.88;;;;;;;;;;4192692;28;20274;-58
2023/05/12 08:09:24;;;;;;;4.65;2.63;;;;;;;;;;4196586;28;20279;-58
2023/05/12 08:11:45;;;;;;;7.60;3.28;;;;;;;;;;4194487;28;20052;-58
2023/05/12 08:14:09;;;;;;;8.70;3.55;;;;;;;;;;4189416;28;20586;-58
2023/05/12 08:16:29;;;;;;;6.93;2.33;;;;;;;;;;4193829;28;20071;-58
2023/05/12 08:18:50;;;;;;;4.82;3.03;;;;;;;;;;4194722;28;20052;-58
2023/05/12 08:21:10;;;;;;;4.38;2.38;;;;;;;;;;4189127;28;20048;-58
2023/05/12 08:23:31;;;;;;;9.18;2.65;;;;;;;;;;4190238;28;20044;-58
2023/05/12 08:25:51;;;;;;;4.72;1.40;;;;;;;;;;4192045;28;20067;-58
2023/05/12 08:28:11;;;;;;;4.93;1.50;;;;;;;;;;4175487;28;20047;-59
2023/05/12 08:30:31;;;;;;;1.42;1.25;;;;;;;;;;4191131;28;20408;-59
2023/05/12 08:32:52;;;;;;;9.07;1.48;;;;;;;;;;4190232;28;20044;-58
2023/05/12 08:35:12;;;;;;;6.43;1.30;;;;;;;;;;4189852;28;20052;-57
2023/05/12 08:37:33;;;;;;;4.90;1.98;;;;;;;;;;4192170;28;20092;-58
2023/05/12 08:39:55;;;;;;;4.78;1.58;;;;;;;;;;4190123;28;20076;-59
2023/05/12 08:42:35;;;;;;;5.32;1.83;;;;;;;;;;4189271;28;20083;-58
2023/05/12 08:44:55;;;;;;;6.80;1.65;;;;;;;;;;4190408;28;20088;-58
2023/05/12 08:47:18;;;;;;;3.70;1.58;;;;;;;;;;4190996;28;20052;-58
2023/05/12 08:49:38;;;;;;;2.95;1.42;;;;;;;;;;4188699;28;20036;-58
2023/05/12 08:52:00;;;;;;;7.00;2.97;;;;;;;;;;4189036;28;20044;-58
2023/05/12 08:54:21;;;;;;;6.25;2.13;;;;;;;;;;4191293;28;20040;-58
2023/05/12 08:56:43;;;;;;;3.72;2.00;;;;;;;;;;4191566;28;20052;-58
2023/05/12 08:59:08;;;;;;;9.20;3.10;;;;;;;;;;4190019;28;20060;-59
2023/05/12 09:01:29;;;;;;;2.83;1.52;;;;;;;;;;4190998;28;20415;-58
2023/05/12 09:03:51;;;;;;;4.68;1.73;;;;;;;;;;4193107;28;20138;-58
2023/05/12 09:06:12;;;;;;;4.70;1.55;;;;;;;;;;4190395;28;20059;-58
2023/05/12 09:08:36;;;;;;;4.63;2.05;;;;;;;;;;4189834;28;20082;-57
2023/05/12 09:10:57;;;;;;;4.03;1.20;;;;;;;;;;4190951;28;20071;-58
2023/05/12 09:13:25;;;;;;;6.90;1.67;;;;;;;;;;4188321;28;20378;-59
2023/05/12 09:15:47;;;;;;;4.78;1.30;;;;;;;;;;4188964;28;20112;-58
2023/05/12 09:18:07;;;;;;;4.57;1.52;;;;;;;;;;4190291;28;20418;-58
2023/05/12 09:20:28;;;;;;;6.80;1.45;;;;;;;;;;4190619;28;20039;-58
2023/05/12 09:22:55;;;;;;;4.13;1.40;;;;;;;;;;4189035;28;20056;-59
2023/05/12 09:25:20;;;;;;;8.45;2.05;;;;;;;;;;4190388;28;20035;-58
2023/05/12 09:27:40;;;;;;;7.30;1.67;;;;;;;;;;4188574;28;20063;-58
2023/05/12 09:30:01;;;;;;;2.38;1.50;;;;;;;;;;4187893;28;20049;-58
2023/05/12 09:32:33;;;;;;;1.98;1.20;;;;;;;;;;4187889;28;20047;-58
2023/05/12 09:34:54;;;;;;;;;;;;;;;;;;4189433;28;20401;-58
2023/05/12 09:37:14;;;;;;;5.80;1.95;;;;;;;;;;4187792;28;19924;-59
2023/05/12 09:39:36;;;;;;;5.15;1.38;;;;;;;;;;4188411;28;20048;-58
2023/05/12 09:41:56;;;;;;;8.57;2.38;;;;;;;;;;4187959;28;20048;-58
2023/05/12 09:44:16;;;;;;;4.68;1.48;;;;;;;;;;4174320;28;20332;-58
2023/05/12 09:46:38;;;;;;;8.48;1.75;;;;;;;;;;4189998;28;20043;-59
2023/05/12 09:48:59;;;;;;;6.00;1.55;;;;;;;;;;4191924;28;20082;-58
2023/05/12 09:51:19;;;;;;;2.05;1.20;;;;;;;;;;4192483;28;20056;-58
2023/05/12 09:53:43;;;;;;;4.25;1.95;;;;;;;;;;4192577;28;20044;-58
2023/05/12 09:56:03;;;;;;;2.15;1.10;;;;;;;;;;4193700;28;20099;-58
2023/05/12 09:58:24;;;;;;;4.63;1.30;;;;;;;;;;4191238;28;20048;-58
2023/05/12 10:00:45;;;;;;;6.20;1.30;;;;;;;;;;4194096;28;20237;-58
2023/05/12 10:03:16;;;;;;;4.38;1.50;;;;;;;;;;4192555;28;20088;-59
2023/05/12 10:05:38;;;;;;;3.22;1.52;;;;;;;;;;4191639;28;20386;-58
2023/05/12 10:08:00;;;;;;;2.85;1.52;;;;;;;;;;4191801;28;20239;-58
2023/05/12 10:10:22;;;;;;;4.22;1.08;;;;;;;;;;4194551;28;20047;-59
2023/05/12 10:12:43;;;;;;;1.55;1.00;;;;;;;;;;4191345;28;20247;-58
2023/05/12 10:15:04;;;;;;;4.43;1.75;;;;;;;;;;4191934;28;20366;-57
2023/05/12 10:17:24;;;;;;;3.05;1.58;;;;;;;;;;4193259;28;20051;-58
2023/05/12 10:19:45;;;;;;;8.57;1.77;;;;;;;;;;4193036;28;20083;-58
2023/05/12 10:22:09;;;;;;;3.35;1.35;;;;;;;;;;4191204;28;20330;-59
2023/05/12 10:24:30;;;;;;;2.85;1.25;;;;;;;;;;4192082;28;20110;-59
2023/05/12 10:26:50;;;;;;;2.53;1.70;;;;;;;;;;4193858;28;20060;-59
2023/05/12 10:29:11;;;;;;;6.30;1.40;;;;;;;;;;4191119;28;20043;-59
2023/05/12 10:31:32;;;;;;;3.63;1.20;;;;;;;;;;4192146;28;20083;-59
2023/05/12 10:33:59;;;;;;;2.38;1.48;;;;;;;;;;4192569;28;20047;-59
2023/05/12 10:36:19;;;;;;;4.28;1.55;;;;;;;;;;4192183;28;20087;-58
2023/05/12 10:38:40;;;;;;;4.65;1.58;;;;;;;;;;4192245;28;20106;-58
2023/05/12 10:41:01;;;;;;;1.15;1.10;;;;;;;;;;4191799;28;20231;-58
2023/05/12 10:43:27;;;;;;;1.85;1.10;;;;;;;;;;4191709;28;20082;-58
2023/05/12 10:45:47;;;;;;;7.05;1.98;;;;;;;;;;4192740;28;20397;-58
2023/05/12 10:48:08;;;;;;;4.38;1.27;;;;;;;;;;4191001;28;20405;-58
2023/05/12 10:50:29;;;;;;;5.93;1.13;;;;;;;;;;4189299;28;20111;-58
2023/05/12 10:52:53;;;;;;;9.60;1.20;;;;;;;;;;4191058;28;20055;-58
2023/05/12 10:55:13;;;;;;;1.95;1.38;;;;;;;;;;4190388;28;20083;-58
2023/05/12 10:57:33;;;;;;;1.50;1.02;;;;;;;;;;4190837;28;20405;-58
2023/05/12 10:59:58;;;;;;;6.03;1.33;;;;;;;;;;4188296;28;20378;-58
2023/05/12 11:02:31;;;;;;;1.77;1.13;;;;;;;;;;4189683;28;20104;-59
2023/05/12 11:04:57;;;;;;;0.98;0.98;;;;;;;;;;4191355;28;20079;-58
2023/05/12 11:07:26;;;;;;;5.03;1.52;;;;;;;;;;4187569;28;20044;-58
2023/05/12 11:09:47;;;;;;;2.60;1.30;;;;;;;;;;4189661;28;20244;-58
2023/05/12 11:12:18;;;;;;;4.63;1.05;;;;;;;;;;4192454;28;20044;-58
2023/05/12 11:14:39;;;;;;;1.75;0.90;;;;;;;;;;4190669;28;20108;-59
2023/05/12 11:17:00;;;;;;;3.72;1.10;;;;;;;;;;4190937;28;20036;-58
2023/05/12 11:19:20;;;;;;;3.17;0.80;;;;;;;;;;4192561;28;20231;-58
2023/05/12 11:21:41;;;;;;;2.20;0.90;;;;;;;;;;4191755;28;20119;-59
2023/05/12 11:24:01;;;;;;;1.35;1.08;;;;;;;;;;4190116;28;20060;-58
2023/05/12 11:26:22;;;;;;;2.72;1.25;;;;;;;;;;4191300;28;20121;-58
2023/05/12 11:28:42;;;;;;;2.33;1.02;;;;;;;;;;4193429;28;20289;-58
2023/05/12 11:31:02;;;;;;;2.88;0.90;;;;;;;;;;4191344;28;20052;-59
2023/05/12 11:33:23;;;;;;;2.45;1.00;;;;;;;;;;4190358;28;20043;-59
2023/05/12 11:35:43;;;;;;;3.30;1.15;;;;;;;;;;4192240;28;20075;-58
2023/05/12 11:38:14;;;;;;;3.42;1.13;;;;;;;;;;4189918;28;20140;-59
2023/05/12 11:40:40;;;;;;;2.45;0.90;;;;;;;;;;4192803;28;20055;-58
2023/05/12 11:43:08;;;;;;;1.45;0.90;;;;;;;;;;4189692;28;20387;-58
2023/05/12 11:45:30;;;;;;;1.90;1.50;;;;;;;;;;4188967;28;20267;-58
2023/05/12 11:47:50;;;;;;;3.33;1.30;;;;;;;;;;4193489;28;20416;-57
2023/05/12 11:50:11;;;;;;;4.05;1.25;;;;;;;;;;4176564;28;20060;-58
2023/05/12 11:52:31;;;;;;;5.50;1.10;;;;;;;;;;4190541;28;20110;-58
2023/05/12 11:54:53;;;;;;;2.97;1.65;;;;;;;;;;4192511;28;20079;-57
2023/05/12 11:57:23;;;;;;;2.47;0.93;;;;;;;;;;4195250;28;20108;-57
2023/05/12 11:59:43;;;;;;;4.55;2.35;;;;;;;;;;4192897;28;20393;-58
2023/05/12 12:02:04;;;;;;;1.15;1.05;;;;;;;;;;4192291;28;20044;-58
2023/05/12 12:04:31;;;;;;;1.75;0.90;;;;;;;;;;4194192;28;20043;-58
2023/05/12 12:06:51;;;;;;;1.73;1.00;;;;;;;;;;4194162;28;20124;-57
2023/05/12 12:09:12;;;;;;;2.08;0.90;;;;;;;;;;4187761;28;20048;-57
2023/05/12 12:11:33;;;;;;;1.20;0.90;;;;;;;;;;4176609;28;20076;-57
2023/05/12 12:13:58;;;;;;;2.72;1.02;;;;;;;;;;4193180;28;20044;-57
2023/05/12 12:16:18;;;;;;;5.35;1.13;;;;;;;;;;4188357;28;20243;-57
2023/05/12 12:18:39;;;;;;;1.30;1.05;;;;;;;;;;4189809;28;20083;-57
2023/05/12 12:20:59;;;;;;;5.22;1.20;;;;;;;;;;4189381;28;20047;-58
2023/05/12 12:23:20;;;;;;;0.90;0.90;;;;;;;;;;4188622;28;20342;-58
2023/05/12 12:25:40;;;;;;;1.85;1.20;;;;;;;;;;4189532;28;20105;-58
2023/05/12 12:28:00;;;;;;;1.85;1.10;;;;;;;;;;4188787;28;20110;-55
2023/05/12 12:30:21;;;;;;;1.42;0.80;;;;;;;;;;4189128;28;20047;-56
2023/05/12 12:32:41;;;;;;;1.85;0.90;;;;;;;;;;4189138;28;20051;-56
2023/05/12 12:35:03;;;;;;;1.88;1.10;;;;;;;;;;4189709;28;20044;-56
2023/05/12 12:37:23;;;;;;;2.72;1.00;;;;;;;;;;4190972;28;20048;-56
2023/05/12 12:39:43;;;;;;;1.50;0.90;;;;;;;;;;4175703;28;20263;-56
2023/05/12 12:42:04;;;;;;;1.42;1.20;;;;;;;;;;4191263;28;20044;-56
2023/05/12 12:44:24;;;;;;;6.28;1.20;;;;;;;;;;4189985;28;20089;-56
2023/05/12 12:46:44;;;;;;;1.33;1.33;;;;;;;;;;4190003;28;20307;-56
2023/05/12 12:49:05;;;;;;;1.17;1.10;;;;;;;;;;4191148;28;20064;-55
2023/05/12 12:51:26;;;;;;;2.08;1.90;;;;;;;;;;4190074;28;20040;-56
2023/05/12 12:54:02;;;;;;;2.33;1.80;;;;;;;;;;4188726;28;20055;-56
2023/05/12 12:56:24;;;;;;;3.03;1.10;;;;;;;;;;4191673;28;20052;-56
2023/05/12 12:58:45;;;;;;;1.17;1.05;;;;;;;;;;4192899;28;20147;-56
2023/05/12 13:01:05;;;;;;;0.95;0.95;;;;;;;;;;4174546;28;20064;-56
2023/05/12 13:03:26;;;;;;;2.60;1.10;;;;;;;;;;4188756;28;20386;-56
2023/05/12 13:05:47;;;;;;;1.13;1.13;;;;;;;;;;4191859;28;20086;-56
2023/05/12 13:08:07;;;;;;;1.98;1.65;;;;;;;;;;4190839;28;20052;-56
2023/05/12 13:10:27;;;;;;;1.15;1.13;;;;;;;;;;4189735;28;20236;-56
2023/05/12 13:12:48;;;;;;;1.50;1.50;;;;;;;;;;4188907;28;20075;-56
2023/05/12 13:15:09;;;;;;;2.00;1.70;;;;;;;;;;4192076;28;20108;-56
2023/05/12 13:17:29;;;;;;;2.25;1.60;;;;;;;;;;4189330;28;20056;-57
2023/05/12 13:19:51;;;;;;;2.38;2.28;;;;;;;;;;4190746;28;20048;-58
2023/05/12 13:22:11;;;;;;;1.65;1.55;;;;;;;;;;4190518;28;20067;-58
2023/05/12 13:24:31;;;;;;;2.33;1.13;;;;;;;;;;4191780;28;20132;-59
2023/05/12 13:26:51;;;;;;;2.20;1.40;;;;;;;;;;4191827;28;20076;-59
2023/05/12 13:29:12;;;;;;;1.15;1.10;;;;;;;;;;4192660;28;20063;-59
2023/05/12 13:31:32;;;;;;;3.95;1.45;;;;;;;;;;4192373;28;20056;-60
2023/05/12 13:33:52;;;;;;;2.25;1.45;;;;;;;;;;4194118;28;20047;-59
2023/05/12 13:36:12;;;;;;;3.08;1.65;;;;;;;;;;4191925;28;20120;-59
2023/05/12 13:38:33;;;;;;;1.30;1.20;;;;;;;;;;4192928;28;20124;-59
2023/05/12 13:40:53;;;;;;;2.00;1.48;;;;;;;;;;4192544;28;20056;-58
2023/05/12 13:43:14;;;;;;;3.72;1.60;;;;;;;;;;4194678;28;20051;-59
2023/05/12 13:45:34;;;;;;;2.85;1.83;;;;;;;;;;4191469;28;20051;-59
2023/05/12 13:47:54;;;;;;;1.98;1.40;;;;;;;;;;4191771;28;20048;-59
2023/05/12 13:50:15;;;;;;;1.75;1.65;;;;;;;;;;4191657;28;20091;-59
2023/05/12 13:52:35;;;;;;;1.20;1.20;;;;;;;;;;4191597;28;20048;-59
2023/05/12 13:54:55;;;;;;;2.85;1.60;;;;;;;;;;4192306;28;20051;-58
2023/05/12 13:57:16;;;;;;;2.22;1.35;;;;;;;;;;4190124;28;20086;-58
2023/05/12 13:59:36;;;;;;;3.28;1.60;;;;;;;;;;4192346;28;20118;-59
2023/05/12 14:01:56;;;;;;;1.48;1.30;;;;;;;;;;4190106;28;20087;-58
2023/05/12 14:04:17;;;;;;;2.58;1.20;;;;;;;;;;4193049;28;20047;-58
2023/05/12 14:06:37;;;;;;;1.60;1.50;;;;;;;;;;4192294;28;20117;-57